sensor_id;sensor_type;location;lat;lon;timestamp;P1;durP1;ratioP1;P2;durP2;ratioP2
21299;SDS011;10809;49.476;11.016;2024-02-23T00:01:51;0.10;;;0.10;;
21299;SDS011;10809;49.476;11.016;2024-02-23T00:04:21;0.33;;;0.10;;
21299;SDS011;10809;49.476;11.016;2024-02-23T00:06:52;0.10;;;0.10;;
21299;SDS011;10809;49.476;11.016;2024-02-23T00:09:22;0.20;;;0.20;;
21299;SDS011;10809;49.476;11.016;2024-02-23T00:11:54;0.10;;;0.10;;
21299;SDS011;10809;49.476;11.016;2024-02-23T00:14:25;0.10;;;0.10;;
21299;SDS011;10809;49.476;11.016;2024-02-23T00:16:55;0.10;;;0.10;;
21299;SDS011;10809;49.476;11.016;2024-02-23T00:19:26;0.00;;;0.00;;
21299;SDS011;10809;49.476;11.016;2024-02-23T00:21:57;0.27;;;0.20;;
21299;SDS011;10809;49.476;11.016;2024-02-23T00:24:29;0.10;;;0.10;;
21299;SDS011;10809;49.476;11.016;2024-02-23T00:26:59;0.33;;;0.10;;
21299;SDS011;10809;49.476;11.016;2024-02-23T00:29:30;0.00;;;0.00;;
21299;SDS011;10809;49.476;11.016;2024-02-23T00:32:00;0.87;;;0.00;;
21299;SDS011;10809;49.476;11.016;2024-02-23T00:34:31;0.53;;;0.10;;
21299;SDS011;10809;49.476;11.016;2024-02-23T00:37:02;0.40;;;0.10;;
21299;SDS011;10809;49.476;11.016;2024-02-23T00:39:33;0.10;;;0.10;;
21299;SDS011;10809;49.476;11.016;2024-02-23T00:42:04;0.27;;;0.10;;
21299;SDS011;10809;49.476;11.016;2024-02-23T00:44:34;0.30;;;0.10;;
21299;SDS011;10809;49.476;11.016;2024-02-23T00:47:05;0.20;;;0.03;;
21299;SDS011;10809;49.476;11.016;2024-02-23T00:49:35;0.30;;;0.10;;
21299;SDS011;10809;49.476;11.016;2024-02-23T00:52:05;0.30;;;0.10;;
21299;SDS011;10809;49.476;11.016;2024-02-23T00:54:36;0.10;;;0.10;;
21299;SDS011;10809;49.476;11.016;2024-02-23T00:57:06;0.10;;;0.10;;
21299;SDS011;10809;49.476;11.016;2024-02-23T00:59:37;0.77;;;0.10;;
21299;SDS011;10809;49.476;11.016;2024-02-23T01:02:08;0.00;;;0.00;;
21299;SDS011;10809;49.476;11.016;2024-02-23T01:04:39;0.13;;;0.10;;
21299;SDS011;10809;49.476;11.016;2024-02-23T01:07:10;0.07;;;0.07;;
21299;SDS011;10809;49.476;11.016;2024-02-23T01:09:40;0.70;;;0.03;;
21299;SDS011;10809;49.476;11.016;2024-02-23T01:12:11;0.00;;;0.00;;
21299;SDS011;10809;49.476;11.016;2024-02-23T01:14:41;0.40;;;0.10;;
21299;SDS011;10809;49.476;11.016;2024-02-23T01:17:11;0.00;;;0.00;;
21299;SDS011;10809;49.476;11.016;2024-02-23T01:19:43;0.10;;;0.10;;
21299;SDS011;10809;49.476;11.016;2024-02-23T01:22:13;0.13;;;0.10;;
21299;SDS011;10809;49.476;11.016;2024-02-23T01:24:44;0.20;;;0.00;;
21299;SDS011;10809;49.476;11.016;2024-02-23T01:27:15;0.10;;;0.10;;
21299;SDS011;10809;49.476;11.016;2024-02-23T01:29:45;1.80;;;0.00;;
21299;SDS011;10809;49.476;11.016;2024-02-23T01:32:16;0.40;;;0.10;;
21299;SDS011;10809;49.476;11.016;2024-02-23T01:34:47;0.43;;;0.07;;
21299;SDS011;10809;49.476;11.016;2024-02-23T01:37:17;0.10;;;0.10;;
21299;SDS011;10809;49.476;11.016;2024-02-23T01:39:47;0.10;;;0.10;;
21299;SDS011;10809;49.476;11.016;2024-02-23T01:42:18;0.23;;;0.10;;
21299;SDS011;10809;49.476;11.016;2024-02-23T01:44:48;0.20;;;0.20;;
21299;SDS011;10809;49.476;11.016;2024-02-23T01:47:19;0.20;;;0.10;;
21299;SDS011;10809;49.476;11.016;2024-02-23T01:49:49;0.10;;;0.10;;
21299;SDS011;10809;49.476;11.016;2024-02-23T01:52:21;0.43;;;0.10;;
21299;SDS011;10809;49.476;11.016;2024-02-23T01:54:52;0.27;;;0.10;;
21299;SDS011;10809;49.476;11.016;2024-02-23T01:57:24;2.77;;;0.10;;
21299;SDS011;10809;49.476;11.016;2024-02-23T01:59:55;1.10;;;0.10;;
21299;SDS011;10809;49.476;11.016;2024-02-23T02:02:27;0.30;;;0.10;;
21299;SDS011;10809;49.476;11.016;2024-02-23T02:04:58;0.13;;;0.10;;
21299;SDS011;10809;49.476;11.016;2024-02-23T02:07:29;0.10;;;0.10;;
21299;SDS011;10809;49.476;11.016;2024-02-23T02:09:59;1.80;;;0.20;;
21299;SDS011;10809;49.476;11.016;2024-02-23T02:12:30;1.20;;;0.00;;
21299;SDS011;10809;49.476;11.016;2024-02-23T02:15:01;1.50;;;0.10;;
21299;SDS011;10809;49.476;11.016;2024-02-23T02:17:31;0.20;;;0.20;;
21299;SDS011;10809;49.476;11.016;2024-02-23T02:20:02;0.37;;;0.10;;
21299;SDS011;10809;49.476;11.016;2024-02-23T02:22:36;1.70;;;0.20;;
21299;SDS011;10809;49.476;11.016;2024-02-23T02:25:06;0.40;;;0.10;;
21299;SDS011;10809;49.476;11.016;2024-02-23T02:27:37;0.43;;;0.17;;
21299;SDS011;10809;49.476;11.016;2024-02-23T02:30:08;0.67;;;0.47;;
21299;SDS011;10809;49.476;11.016;2024-02-23T02:32:38;0.10;;;0.10;;
21299;SDS011;10809;49.476;11.016;2024-02-23T02:35:12;1.13;;;0.10;;
21299;SDS011;10809;49.476;11.016;2024-02-23T02:37:43;0.20;;;0.10;;
21299;SDS011;10809;49.476;11.016;2024-02-23T02:40:13;0.17;;;0.17;;
21299;SDS011;10809;49.476;11.016;2024-02-23T02:42:44;0.10;;;0.10;;
21299;SDS011;10809;49.476;11.016;2024-02-23T02:45:14;0.73;;;0.50;;
21299;SDS011;10809;49.476;11.016;2024-02-23T02:47:45;1.60;;;0.20;;
21299;SDS011;10809;49.476;11.016;2024-02-23T02:50:15;0.63;;;0.20;;
21299;SDS011;10809;49.476;11.016;2024-02-23T02:52:46;0.63;;;0.13;;
21299;SDS011;10809;49.476;11.016;2024-02-23T02:55:16;0.57;;;0.20;;
21299;SDS011;10809;49.476;11.016;2024-02-23T02:57:47;0.40;;;0.20;;
21299;SDS011;10809;49.476;11.016;2024-02-23T03:00:17;0.50;;;0.20;;
21299;SDS011;10809;49.476;11.016;2024-02-23T03:02:48;0.30;;;0.20;;
21299;SDS011;10809;49.476;11.016;2024-02-23T03:05:18;0.37;;;0.17;;
21299;SDS011;10809;49.476;11.016;2024-02-23T03:07:49;0.20;;;0.10;;
21299;SDS011;10809;49.476;11.016;2024-02-23T03:10:19;1.07;;;0.20;;
21299;SDS011;10809;49.476;11.016;2024-02-23T03:12:50;1.33;;;0.10;;
21299;SDS011;10809;49.476;11.016;2024-02-23T03:15:20;0.77;;;0.20;;
21299;SDS011;10809;49.476;11.016;2024-02-23T03:17:51;2.10;;;0.20;;
21299;SDS011;10809;49.476;11.016;2024-02-23T03:20:21;0.33;;;0.20;;
21299;SDS011;10809;49.476;11.016;2024-02-23T03:22:51;0.40;;;0.17;;
21299;SDS011;10809;49.476;11.016;2024-02-23T03:25:22;0.67;;;0.37;;
21299;SDS011;10809;49.476;11.016;2024-02-23T03:27:52;0.10;;;0.10;;
21299;SDS011;10809;49.476;11.016;2024-02-23T03:30:23;3.47;;;0.20;;
21299;SDS011;10809;49.476;11.016;2024-02-23T03:32:53;0.27;;;0.20;;
21299;SDS011;10809;49.476;11.016;2024-02-23T03:35:24;0.50;;;0.20;;
21299;SDS011;10809;49.476;11.016;2024-02-23T03:37:54;0.30;;;0.30;;
21299;SDS011;10809;49.476;11.016;2024-02-23T03:40:24;0.27;;;0.20;;
21299;SDS011;10809;49.476;11.016;2024-02-23T03:42:55;0.43;;;0.10;;
21299;SDS011;10809;49.476;11.016;2024-02-23T03:45:25;2.27;;;0.40;;
21299;SDS011;10809;49.476;11.016;2024-02-23T03:47:56;0.17;;;0.10;;
21299;SDS011;10809;49.476;11.016;2024-02-23T03:50:26;0.40;;;0.27;;
21299;SDS011;10809;49.476;11.016;2024-02-23T03:52:56;1.23;;;0.20;;
21299;SDS011;10809;49.476;11.016;2024-02-23T03:55:27;0.10;;;0.10;;
21299;SDS011;10809;49.476;11.016;2024-02-23T03:57:57;0.10;;;0.10;;
21299;SDS011;10809;49.476;11.016;2024-02-23T04:00:28;1.27;;;0.30;;
21299;SDS011;10809;49.476;11.016;2024-02-23T04:02:58;0.10;;;0.10;;
21299;SDS011;10809;49.476;11.016;2024-02-23T04:05:29;0.73;;;0.20;;
21299;SDS011;10809;49.476;11.016;2024-02-23T04:07:59;3.00;;;0.37;;
21299;SDS011;10809;49.476;11.016;2024-02-23T04:10:30;0.30;;;0.30;;
21299;SDS011;10809;49.476;11.016;2024-02-23T04:13:01;2.00;;;0.33;;
21299;SDS011;10809;49.476;11.016;2024-02-23T04:15:31;1.53;;;0.30;;
21299;SDS011;10809;49.476;11.016;2024-02-23T04:18:02;0.70;;;0.30;;
21299;SDS011;10809;49.476;11.016;2024-02-23T04:20:33;0.30;;;0.20;;
21299;SDS011;10809;49.476;11.016;2024-02-23T04:23:03;0.60;;;0.20;;
21299;SDS011;10809;49.476;11.016;2024-02-23T04:25:34;0.30;;;0.30;;
21299;SDS011;10809;49.476;11.016;2024-02-23T04:28:04;1.07;;;0.20;;
21299;SDS011;10809;49.476;11.016;2024-02-23T04:30:35;0.50;;;0.20;;
21299;SDS011;10809;49.476;11.016;2024-02-23T04:33:08;0.70;;;0.37;;
21299;SDS011;10809;49.476;11.016;2024-02-23T04:35:39;1.33;;;0.30;;
21299;SDS011;10809;49.476;11.016;2024-02-23T04:38:09;1.20;;;0.30;;
21299;SDS011;10809;49.476;11.016;2024-02-23T04:40:43;0.53;;;0.30;;
21299;SDS011;10809;49.476;11.016;2024-02-23T04:43:13;2.43;;;0.20;;
21299;SDS011;10809;49.476;11.016;2024-02-23T04:45:44;0.60;;;0.20;;
21299;SDS011;10809;49.476;11.016;2024-02-23T04:48:14;2.50;;;0.40;;
21299;SDS011;10809;49.476;11.016;2024-02-23T04:50:45;0.70;;;0.30;;
21299;SDS011;10809;49.476;11.016;2024-02-23T04:53:15;0.93;;;0.20;;
21299;SDS011;10809;49.476;11.016;2024-02-23T04:55:46;1.43;;;0.30;;
21299;SDS011;10809;49.476;11.016;2024-02-23T04:58:16;0.60;;;0.30;;
21299;SDS011;10809;49.476;11.016;2024-02-23T05:00:46;1.90;;;0.30;;
21299;SDS011;10809;49.476;11.016;2024-02-23T05:03:17;0.30;;;0.30;;
21299;SDS011;10809;49.476;11.016;2024-02-23T05:05:47;1.07;;;0.30;;
21299;SDS011;10809;49.476;11.016;2024-02-23T05:08:23;1.10;;;0.40;;
21299;SDS011;10809;49.476;11.016;2024-02-23T05:10:57;0.70;;;0.30;;
21299;SDS011;10809;49.476;11.016;2024-02-23T05:13:28;1.90;;;0.20;;
21299;SDS011;10809;49.476;11.016;2024-02-23T05:15:59;0.63;;;0.23;;
21299;SDS011;10809;49.476;11.016;2024-02-23T05:18:32;0.70;;;0.40;;
21299;SDS011;10809;49.476;11.016;2024-02-23T05:21:02;0.40;;;0.20;;
21299;SDS011;10809;49.476;11.016;2024-02-23T05:23:36;1.73;;;0.67;;
21299;SDS011;10809;49.476;11.016;2024-02-23T05:26:07;1.67;;;0.50;;
21299;SDS011;10809;49.476;11.016;2024-02-23T05:28:37;0.87;;;0.60;;
21299;SDS011;10809;49.476;11.016;2024-02-23T05:31:09;1.90;;;0.60;;
21299;SDS011;10809;49.476;11.016;2024-02-23T05:33:40;0.97;;;0.47;;
21299;SDS011;10809;49.476;11.016;2024-02-23T05:36:11;1.00;;;0.40;;
21299;SDS011;10809;49.476;11.016;2024-02-23T05:38:41;0.97;;;0.40;;
21299;SDS011;10809;49.476;11.016;2024-02-23T05:41:15;1.93;;;0.47;;
21299;SDS011;10809;49.476;11.016;2024-02-23T05:43:46;1.23;;;0.80;;
21299;SDS011;10809;49.476;11.016;2024-02-23T05:46:16;1.93;;;0.60;;
21299;SDS011;10809;49.476;11.016;2024-02-23T05:48:48;1.83;;;0.50;;
21299;SDS011;10809;49.476;11.016;2024-02-23T05:51:18;2.10;;;0.70;;
21299;SDS011;10809;49.476;11.016;2024-02-23T05:53:48;0.50;;;0.47;;
21299;SDS011;10809;49.476;11.016;2024-02-23T05:56:19;1.23;;;0.50;;
21299;SDS011;10809;49.476;11.016;2024-02-23T05:58:50;0.30;;;0.30;;
21299;SDS011;10809;49.476;11.016;2024-02-23T06:01:21;0.60;;;0.40;;
21299;SDS011;10809;49.476;11.016;2024-02-23T06:03:52;1.10;;;0.70;;
21299;SDS011;10809;49.476;11.016;2024-02-23T06:06:25;0.50;;;0.50;;
21299;SDS011;10809;49.476;11.016;2024-02-23T06:08:55;0.77;;;0.67;;
21299;SDS011;10809;49.476;11.016;2024-02-23T06:11:25;0.50;;;0.40;;
21299;SDS011;10809;49.476;11.016;2024-02-23T06:13:59;1.77;;;0.50;;
21299;SDS011;10809;49.476;11.016;2024-02-23T06:16:29;1.30;;;0.30;;
21299;SDS011;10809;49.476;11.016;2024-02-23T06:19:00;1.03;;;0.33;;
21299;SDS011;10809;49.476;11.016;2024-02-23T06:21:34;2.00;;;0.90;;
21299;SDS011;10809;49.476;11.016;2024-02-23T06:24:04;1.20;;;0.70;;
21299;SDS011;10809;49.476;11.016;2024-02-23T06:26:35;1.27;;;0.67;;
21299;SDS011;10809;49.476;11.016;2024-02-23T06:29:05;3.73;;;0.93;;
21299;SDS011;10809;49.476;11.016;2024-02-23T06:31:36;1.70;;;1.00;;
21299;SDS011;10809;49.476;11.016;2024-02-23T06:34:06;1.87;;;0.70;;
21299;SDS011;10809;49.476;11.016;2024-02-23T06:36:37;2.47;;;1.13;;
21299;SDS011;10809;49.476;11.016;2024-02-23T06:39:07;1.47;;;0.60;;
21299;SDS011;10809;49.476;11.016;2024-02-23T06:41:38;1.10;;;0.63;;
21299;SDS011;10809;49.476;11.016;2024-02-23T06:44:09;0.63;;;0.37;;
21299;SDS011;10809;49.476;11.016;2024-02-23T06:46:39;2.10;;;0.50;;
21299;SDS011;10809;49.476;11.016;2024-02-23T06:49:10;1.80;;;0.60;;
21299;SDS011;10809;49.476;11.016;2024-02-23T06:51:40;1.23;;;0.50;;
21299;SDS011;10809;49.476;11.016;2024-02-23T06:54:12;1.63;;;0.33;;
21299;SDS011;10809;49.476;11.016;2024-02-23T06:56:42;0.30;;;0.20;;
21299;SDS011;10809;49.476;11.016;2024-02-23T06:59:13;0.30;;;0.30;;
21299;SDS011;10809;49.476;11.016;2024-02-23T07:01:52;0.27;;;0.27;;
21299;SDS011;10809;49.476;11.016;2024-02-23T07:04:24;0.67;;;0.40;;
21299;SDS011;10809;49.476;11.016;2024-02-23T07:06:55;1.00;;;0.50;;
21299;SDS011;10809;49.476;11.016;2024-02-23T07:09:26;1.27;;;0.50;;
21299;SDS011;10809;49.476;11.016;2024-02-23T07:11:56;1.10;;;0.40;;
21299;SDS011;10809;49.476;11.016;2024-02-23T07:14:26;2.53;;;0.70;;
21299;SDS011;10809;49.476;11.016;2024-02-23T07:16:57;0.87;;;0.40;;
21299;SDS011;10809;49.476;11.016;2024-02-23T07:19:27;0.80;;;0.30;;
21299;SDS011;10809;49.476;11.016;2024-02-23T07:22:01;0.67;;;0.30;;
21299;SDS011;10809;49.476;11.016;2024-02-23T07:24:32;0.40;;;0.40;;
21299;SDS011;10809;49.476;11.016;2024-02-23T07:27:03;0.63;;;0.27;;
21299;SDS011;10809;49.476;11.016;2024-02-23T07:29:33;3.00;;;0.40;;
21299;SDS011;10809;49.476;11.016;2024-02-23T07:32:04;0.70;;;0.30;;
21299;SDS011;10809;49.476;11.016;2024-02-23T07:34:35;0.33;;;0.30;;
21299;SDS011;10809;49.476;11.016;2024-02-23T07:37:05;0.50;;;0.30;;
21299;SDS011;10809;49.476;11.016;2024-02-23T07:39:36;0.30;;;0.30;;
21299;SDS011;10809;49.476;11.016;2024-02-23T07:42:06;1.03;;;0.60;;
21299;SDS011;10809;49.476;11.016;2024-02-23T07:44:38;0.63;;;0.50;;
21299;SDS011;10809;49.476;11.016;2024-02-23T07:47:08;1.73;;;0.40;;
21299;SDS011;10809;49.476;11.016;2024-02-23T07:49:39;2.90;;;0.50;;
21299;SDS011;10809;49.476;11.016;2024-02-23T07:52:11;0.70;;;0.40;;
21299;SDS011;10809;49.476;11.016;2024-02-23T07:54:41;1.17;;;0.53;;
21299;SDS011;10809;49.476;11.016;2024-02-23T07:57:11;1.30;;;0.60;;
21299;SDS011;10809;49.476;11.016;2024-02-23T07:59:43;0.77;;;0.77;;
21299;SDS011;10809;49.476;11.016;2024-02-23T08:02:14;0.60;;;0.37;;
21299;SDS011;10809;49.476;11.016;2024-02-23T08:04:45;0.53;;;0.40;;
21299;SDS011;10809;49.476;11.016;2024-02-23T08:07:17;0.33;;;0.33;;
21299;SDS011;10809;49.476;11.016;2024-02-23T08:09:48;0.83;;;0.60;;
21299;SDS011;10809;49.476;11.016;2024-02-23T08:12:21;0.67;;;0.57;;
21299;SDS011;10809;49.476;11.016;2024-02-23T08:14:52;0.90;;;0.50;;
21299;SDS011;10809;49.476;11.016;2024-02-23T08:17:23;2.30;;;0.40;;
21299;SDS011;10809;49.476;11.016;2024-02-23T08:19:54;0.90;;;0.60;;
21299;SDS011;10809;49.476;11.016;2024-02-23T08:22:24;0.67;;;0.33;;
21299;SDS011;10809;49.476;11.016;2024-02-23T08:24:55;1.50;;;0.30;;
21299;SDS011;10809;49.476;11.016;2024-02-23T08:27:25;0.40;;;0.40;;
21299;SDS011;10809;49.476;11.016;2024-02-23T08:29:56;0.63;;;0.30;;
21299;SDS011;10809;49.476;11.016;2024-02-23T08:32:26;0.63;;;0.50;;
21299;SDS011;10809;49.476;11.016;2024-02-23T08:34:57;0.63;;;0.30;;
21299;SDS011;10809;49.476;11.016;2024-02-23T08:37:29;0.30;;;0.20;;
21299;SDS011;10809;49.476;11.016;2024-02-23T08:40:00;0.30;;;0.30;;
21299;SDS011;10809;49.476;11.016;2024-02-23T08:42:31;0.87;;;0.20;;
21299;SDS011;10809;49.476;11.016;2024-02-23T08:45:01;0.20;;;0.20;;
21299;SDS011;10809;49.476;11.016;2024-02-23T08:47:32;0.70;;;0.33;;
21299;SDS011;10809;49.476;11.016;2024-02-23T08:50:05;0.57;;;0.20;;
21299;SDS011;10809;49.476;11.016;2024-02-23T08:52:36;0.30;;;0.30;;
21299;SDS011;10809;49.476;11.016;2024-02-23T08:55:07;1.13;;;0.40;;
21299;SDS011;10809;49.476;11.016;2024-02-23T08:57:37;0.67;;;0.30;;
21299;SDS011;10809;49.476;11.016;2024-02-23T09:00:08;0.40;;;0.30;;
21299;SDS011;10809;49.476;11.016;2024-02-23T09:02:40;0.40;;;0.40;;
21299;SDS011;10809;49.476;11.016;2024-02-23T09:05:12;1.20;;;0.53;;
21299;SDS011;10809;49.476;11.016;2024-02-23T09:07:43;0.73;;;0.20;;
21299;SDS011;10809;49.476;11.016;2024-02-23T09:10:13;1.23;;;0.40;;
21299;SDS011;10809;49.476;11.016;2024-02-23T09:12:44;1.20;;;0.30;;
21299;SDS011;10809;49.476;11.016;2024-02-23T09:15:14;0.40;;;0.30;;
21299;SDS011;10809;49.476;11.016;2024-02-23T09:17:45;0.33;;;0.33;;
21299;SDS011;10809;49.476;11.016;2024-02-23T09:20:15;0.23;;;0.23;;
21299;SDS011;10809;49.476;11.016;2024-02-23T09:22:46;0.93;;;0.20;;
21299;SDS011;10809;49.476;11.016;2024-02-23T09:25:17;1.27;;;0.33;;
21299;SDS011;10809;49.476;11.016;2024-02-23T09:27:48;0.77;;;0.30;;
21299;SDS011;10809;49.476;11.016;2024-02-23T09:30:19;0.33;;;0.30;;
21299;SDS011;10809;49.476;11.016;2024-02-23T09:32:49;0.20;;;0.20;;
21299;SDS011;10809;49.476;11.016;2024-02-23T09:35:23;0.53;;;0.20;;
21299;SDS011;10809;49.476;11.016;2024-02-23T09:37:53;0.30;;;0.30;;
21299;SDS011;10809;49.476;11.016;2024-02-23T09:40:24;1.20;;;0.40;;
21299;SDS011;10809;49.476;11.016;2024-02-23T09:42:58;0.27;;;0.27;;
21299;SDS011;10809;49.476;11.016;2024-02-23T09:45:29;0.27;;;0.27;;
21299;SDS011;10809;49.476;11.016;2024-02-23T09:48:00;0.53;;;0.20;;
21299;SDS011;10809;49.476;11.016;2024-02-23T09:50:33;0.90;;;0.57;;
21299;SDS011;10809;49.476;11.016;2024-02-23T09:53:04;0.37;;;0.37;;
21299;SDS011;10809;49.476;11.016;2024-02-23T09:55:39;0.10;;;0.10;;
21299;SDS011;10809;49.476;11.016;2024-02-23T09:58:09;1.00;;;0.40;;
21299;SDS011;10809;49.476;11.016;2024-02-23T10:00:42;1.33;;;0.30;;
21299;SDS011;10809;49.476;11.016;2024-02-23T10:03:13;1.07;;;0.30;;
21299;SDS011;10809;49.476;11.016;2024-02-23T10:05:44;2.27;;;0.30;;
21299;SDS011;10809;49.476;11.016;2024-02-23T10:08:16;0.87;;;0.50;;
21299;SDS011;10809;49.476;11.016;2024-02-23T10:10:46;2.43;;;0.30;;
21299;SDS011;10809;49.476;11.016;2024-02-23T10:13:18;1.20;;;0.60;;
21299;SDS011;10809;49.476;11.016;2024-02-23T10:16:02;0.40;;;0.40;;
21299;SDS011;10809;49.476;11.016;2024-02-23T10:18:34;1.00;;;0.47;;
21299;SDS011;10809;49.476;11.016;2024-02-23T10:21:04;0.70;;;0.40;;
21299;SDS011;10809;49.476;11.016;2024-02-23T10:23:35;0.77;;;0.40;;
21299;SDS011;10809;49.476;11.016;2024-02-23T10:26:06;3.70;;;0.60;;
21299;SDS011;10809;49.476;11.016;2024-02-23T10:28:37;1.13;;;0.60;;
21299;SDS011;10809;49.476;11.016;2024-02-23T10:31:08;1.80;;;0.80;;
21299;SDS011;10809;49.476;11.016;2024-02-23T10:33:39;1.67;;;0.50;;
21299;SDS011;10809;49.476;11.016;2024-02-23T10:36:10;0.60;;;0.40;;
21299;SDS011;10809;49.476;11.016;2024-02-23T10:38:45;0.70;;;0.40;;
21299;SDS011;10809;49.476;11.016;2024-02-23T10:41:19;1.30;;;0.60;;
21299;SDS011;10809;49.476;11.016;2024-02-23T10:43:51;1.23;;;0.33;;
21299;SDS011;10809;49.476;11.016;2024-02-23T10:46:22;1.07;;;0.50;;
21299;SDS011;10809;49.476;11.016;2024-02-23T10:48:56;1.17;;;0.37;;
21299;SDS011;10809;49.476;11.016;2024-02-23T10:51:29;0.60;;;0.30;;
21299;SDS011;10809;49.476;11.016;2024-02-23T10:54:00;0.87;;;0.33;;
21299;SDS011;10809;49.476;11.016;2024-02-23T10:56:32;0.93;;;0.20;;
21299;SDS011;10809;49.476;11.016;2024-02-23T10:59:03;1.27;;;0.30;;
21299;SDS011;10809;49.476;11.016;2024-02-23T11:01:35;1.30;;;0.50;;
21299;SDS011;10809;49.476;11.016;2024-02-23T11:04:09;1.40;;;0.40;;
21299;SDS011;10809;49.476;11.016;2024-02-23T11:06:40;1.03;;;0.20;;
21299;SDS011;10809;49.476;11.016;2024-02-23T11:09:12;0.50;;;0.20;;
21299;SDS011;10809;49.476;11.016;2024-02-23T11:11:56;0.43;;;0.20;;
21299;SDS011;10809;49.476;11.016;2024-02-23T11:14:31;0.20;;;0.20;;
21299;SDS011;10809;49.476;11.016;2024-02-23T11:17:08;0.33;;;0.27;;
21299;SDS011;10809;49.476;11.016;2024-02-23T11:19:51;1.60;;;0.30;;
21299;SDS011;10809;49.476;11.016;2024-02-23T11:22:40;0.60;;;0.20;;
21299;SDS011;10809;49.476;11.016;2024-02-23T11:25:11;0.53;;;0.20;;
21299;SDS011;10809;49.476;11.016;2024-02-23T11:27:41;0.17;;;0.17;;
21299;SDS011;10809;49.476;11.016;2024-02-23T11:30:13;0.43;;;0.20;;
21299;SDS011;10809;49.476;11.016;2024-02-23T11:32:47;0.20;;;0.10;;
21299;SDS011;10809;49.476;11.016;2024-02-23T11:35:21;0.30;;;0.20;;
21299;SDS011;10809;49.476;11.016;2024-02-23T11:37:56;0.47;;;0.10;;
21299;SDS011;10809;49.476;11.016;2024-02-23T11:40:32;0.13;;;0.13;;
21299;SDS011;10809;49.476;11.016;2024-02-23T11:43:03;0.20;;;0.20;;
21299;SDS011;10809;49.476;11.016;2024-02-23T11:45:34;0.73;;;0.30;;
21299;SDS011;10809;49.476;11.016;2024-02-23T11:48:05;0.43;;;0.23;;
21299;SDS011;10809;49.476;11.016;2024-02-23T11:50:36;0.80;;;0.37;;
21299;SDS011;10809;49.476;11.016;2024-02-23T11:53:08;0.77;;;0.30;;
21299;SDS011;10809;49.476;11.016;2024-02-23T11:55:38;0.23;;;0.23;;
21299;SDS011;10809;49.476;11.016;2024-02-23T11:58:10;0.20;;;0.20;;
21299;SDS011;10809;49.476;11.016;2024-02-23T12:00:41;0.30;;;0.30;;
21299;SDS011;10809;49.476;11.016;2024-02-23T12:03:11;0.30;;;0.20;;
21299;SDS011;10809;49.476;11.016;2024-02-23T12:05:42;0.40;;;0.20;;
21299;SDS011;10809;49.476;11.016;2024-02-23T12:08:16;0.43;;;0.33;;
21299;SDS011;10809;49.476;11.016;2024-02-23T12:10:47;1.40;;;0.40;;
21299;SDS011;10809;49.476;11.016;2024-02-23T12:13:17;1.03;;;0.30;;
21299;SDS011;10809;49.476;11.016;2024-02-23T12:15:48;0.47;;;0.20;;
21299;SDS011;10809;49.476;11.016;2024-02-23T12:18:23;0.73;;;0.30;;
21299;SDS011;10809;49.476;11.016;2024-02-23T12:20:59;0.63;;;0.30;;
21299;SDS011;10809;49.476;11.016;2024-02-23T12:26:13;2.13;;;0.43;;
21299;SDS011;10809;49.476;11.016;2024-02-23T12:28:44;0.33;;;0.23;;
21299;SDS011;10809;49.476;11.016;2024-02-23T12:31:23;0.30;;;0.30;;
21299;SDS011;10809;49.476;11.016;2024-02-23T12:33:54;0.30;;;0.23;;
21299;SDS011;10809;49.476;11.016;2024-02-23T12:36:27;1.63;;;0.27;;
21299;SDS011;10809;49.476;11.016;2024-02-23T12:38:58;0.20;;;0.20;;
21299;SDS011;10809;49.476;11.016;2024-02-23T12:41:29;0.50;;;0.47;;
21299;SDS011;10809;49.476;11.016;2024-02-23T12:43:59;0.20;;;0.20;;
21299;SDS011;10809;49.476;11.016;2024-02-23T12:46:30;0.20;;;0.20;;
21299;SDS011;10809;49.476;11.016;2024-02-23T12:49:09;0.57;;;0.30;;
21299;SDS011;10809;49.476;11.016;2024-02-23T12:51:40;1.70;;;0.30;;
21299;SDS011;10809;49.476;11.016;2024-02-23T12:54:10;0.20;;;0.20;;
21299;SDS011;10809;49.476;11.016;2024-02-23T12:56:41;1.67;;;0.60;;
21299;SDS011;10809;49.476;11.016;2024-02-23T12:59:12;0.50;;;0.30;;
21299;SDS011;10809;49.476;11.016;2024-02-23T13:01:42;1.37;;;0.30;;
21299;SDS011;10809;49.476;11.016;2024-02-23T13:04:13;0.47;;;0.47;;
21299;SDS011;10809;49.476;11.016;2024-02-23T13:06:44;0.60;;;0.30;;
21299;SDS011;10809;49.476;11.016;2024-02-23T13:09:14;0.77;;;0.30;;
21299;SDS011;10809;49.476;11.016;2024-02-23T13:11:48;1.17;;;0.30;;
21299;SDS011;10809;49.476;11.016;2024-02-23T13:14:18;0.43;;;0.20;;
21299;SDS011;10809;49.476;11.016;2024-02-23T13:16:48;0.30;;;0.30;;
21299;SDS011;10809;49.476;11.016;2024-02-23T13:19:19;0.43;;;0.40;;
21299;SDS011;10809;49.476;11.016;2024-02-23T13:21:50;1.53;;;0.20;;
21299;SDS011;10809;49.476;11.016;2024-02-23T13:24:23;0.40;;;0.40;;
21299;SDS011;10809;49.476;11.016;2024-02-23T13:26:54;0.73;;;0.30;;
21299;SDS011;10809;49.476;11.016;2024-02-23T13:29:24;0.27;;;0.20;;
21299;SDS011;10809;49.476;11.016;2024-02-23T13:31:54;0.40;;;0.30;;
21299;SDS011;10809;49.476;11.016;2024-02-23T13:34:25;0.80;;;0.20;;
21299;SDS011;10809;49.476;11.016;2024-02-23T13:36:55;0.60;;;0.20;;
21299;SDS011;10809;49.476;11.016;2024-02-23T13:39:26;0.20;;;0.10;;
21299;SDS011;10809;49.476;11.016;2024-02-23T13:41:56;0.30;;;0.30;;
21299;SDS011;10809;49.476;11.016;2024-02-23T13:44:29;0.20;;;0.20;;
21299;SDS011;10809;49.476;11.016;2024-02-23T13:47:01;0.30;;;0.30;;
21299;SDS011;10809;49.476;11.016;2024-02-23T13:49:31;0.30;;;0.20;;
21299;SDS011;10809;49.476;11.016;2024-02-23T13:52:02;0.23;;;0.10;;
21299;SDS011;10809;49.476;11.016;2024-02-23T13:54:32;0.57;;;0.57;;
21299;SDS011;10809;49.476;11.016;2024-02-23T13:57:03;0.27;;;0.20;;
21299;SDS011;10809;49.476;11.016;2024-02-23T13:59:33;0.20;;;0.20;;
21299;SDS011;10809;49.476;11.016;2024-02-23T14:02:04;1.13;;;0.20;;
21299;SDS011;10809;49.476;11.016;2024-02-23T14:04:34;0.50;;;0.23;;
21299;SDS011;10809;49.476;11.016;2024-02-23T14:07:06;0.57;;;0.30;;
21299;SDS011;10809;49.476;11.016;2024-02-23T14:09:40;0.40;;;0.30;;
21299;SDS011;10809;49.476;11.016;2024-02-23T14:12:11;1.00;;;0.30;;
21299;SDS011;10809;49.476;11.016;2024-02-23T14:14:41;0.30;;;0.30;;
21299;SDS011;10809;49.476;11.016;2024-02-23T14:17:11;0.30;;;0.30;;
21299;SDS011;10809;49.476;11.016;2024-02-23T14:19:42;0.83;;;0.50;;
21299;SDS011;10809;49.476;11.016;2024-02-23T14:22:12;0.50;;;0.50;;
21299;SDS011;10809;49.476;11.016;2024-02-23T14:24:43;0.87;;;0.60;;
21299;SDS011;10809;49.476;11.016;2024-02-23T14:27:14;0.50;;;0.30;;
21299;SDS011;10809;49.476;11.016;2024-02-23T14:29:44;0.37;;;0.37;;
21299;SDS011;10809;49.476;11.016;2024-02-23T14:32:16;0.67;;;0.40;;
21299;SDS011;10809;49.476;11.016;2024-02-23T14:34:47;0.30;;;0.30;;
21299;SDS011;10809;49.476;11.016;2024-02-23T14:37:18;0.67;;;0.30;;
21299;SDS011;10809;49.476;11.016;2024-02-23T14:39:48;0.60;;;0.20;;
21299;SDS011;10809;49.476;11.016;2024-02-23T14:42:19;0.40;;;0.40;;
21299;SDS011;10809;49.476;11.016;2024-02-23T14:44:49;0.20;;;0.20;;
21299;SDS011;10809;49.476;11.016;2024-02-23T14:47:20;0.20;;;0.20;;
21299;SDS011;10809;49.476;11.016;2024-02-23T14:49:51;0.50;;;0.50;;
21299;SDS011;10809;49.476;11.016;2024-02-23T14:52:22;0.93;;;0.33;;
21299;SDS011;10809;49.476;11.016;2024-02-23T14:54:52;0.70;;;0.63;;
21299;SDS011;10809;49.476;11.016;2024-02-23T14:57:24;0.20;;;0.20;;
21299;SDS011;10809;49.476;11.016;2024-02-23T14:59:54;0.43;;;0.30;;